Mc Call Municipal Airport
KMYL : now visible

Airfield :











YOU CAN JOIN US ON...

 
LOGIN :

Register | Disclaimer

   EN    FR    IT 

 









Legend :    VFR   Marginal VFR   IFR   Intensive IFR   Very Intensive IFR
Visi :
Ceiling :
>= 8 km
>= 3000ft
5 to 8 km
1000 to 3000 ft
1500m to 5 km
500 to 1000 ft
800 to 1500m
200 to 500 ft
< 800m
< 200 ft
Symbols :   Thunderstorms  Fog  Heavy snow  Heavy precipitations  Wind > 20 kt






- Airport Elevation : 5024 ft


KMYL - Mc Call Municipal

CURRENT METAR :
  • 180551Z AUTO 00000KT 10SM FEW033 BKN070 02/00 A3001 RMK AO2 SLP170 T00220000 10078 20006 50010

EXPIRED METARs :
  • 180451Z AUTO 00000KT 10SM CLR 02/M01 A3001 RMK AO2 SLP171 T00221006
  • 180351Z AUTO 18004KT 10SM CLR 03/00 A2998 RMK AO2 SLP164 T00330000
  • 180251Z AUTO 24005KT 10SM SCT055 BKN070 06/M01 A2997 RMK AO2 SLP154 T00611006 53014
  • 180151Z AUTO 32006KT 10SM FEW070 OVC085 07/M01 A2995 RMK AO2 SLP145 T00721011

TAF KMYL
Valid from the 18 at 06:00 until the 19 at 06:00 UTC


180524Z 1806/1906 VRB05KT P6SM VCSH SCT030 BKN060
FM181100 VRB03KT 3SM BR OVC010
FM181500 VRB03KT P6SM SCT030
FM182000 22007KT P6SM SCT200
KZLC FIR / North America



MET'MAP, your aeronautical weather chart ! - Copyright ORBIFLY December 2007 - Disclaimer

ORBIFLY MET'MAP TEAM :

Programming & Development : Alexandra Zaïnal
Original concept : Baudouin d'Aumeries
Technical & hardware support : Manuel Goepfert
Assistance : Marc-Olivier Méhu




SOURCES & CREDITS :

   NOAA       Earth
Advisory